sensor_id;sensor_type;location;lat;lon;timestamp;temperature;humidity
18577;DHT22;9418;52.694;13.294;2024-02-16T00:00:33;10.60;99.90
18577;DHT22;9418;52.694;13.294;2024-02-16T00:02:59;10.60;99.90
18577;DHT22;9418;52.694;13.294;2024-02-16T00:05:26;10.70;99.90
18577;DHT22;9418;52.694;13.294;2024-02-16T00:07:54;10.70;99.90
18577;DHT22;9418;52.694;13.294;2024-02-16T00:10:20;10.60;99.90
18577;DHT22;9418;52.694;13.294;2024-02-16T00:12:47;10.50;99.90
18577;DHT22;9418;52.694;13.294;2024-02-16T00:15:13;10.50;99.90
18577;DHT22;9418;52.694;13.294;2024-02-16T00:17:40;10.50;99.90
18577;DHT22;9418;52.694;13.294;2024-02-16T00:20:07;10.40;99.90
18577;DHT22;9418;52.694;13.294;2024-02-16T00:22:35;10.40;99.90
18577;DHT22;9418;52.694;13.294;2024-02-16T00:25:03;10.40;99.90
18577;DHT22;9418;52.694;13.294;2024-02-16T00:27:31;10.40;99.90
18577;DHT22;9418;52.694;13.294;2024-02-16T00:29:57;10.40;99.90
18577;DHT22;9418;52.694;13.294;2024-02-16T00:32:24;10.40;99.90
18577;DHT22;9418;52.694;13.294;2024-02-16T00:34:56;10.40;99.90
18577;DHT22;9418;52.694;13.294;2024-02-16T00:37:23;10.30;99.90
18577;DHT22;9418;52.694;13.294;2024-02-16T00:39:50;10.30;99.90
18577;DHT22;9418;52.694;13.294;2024-02-16T00:42:19;10.30;99.90
18577;DHT22;9418;52.694;13.294;2024-02-16T00:44:46;10.30;99.90
18577;DHT22;9418;52.694;13.294;2024-02-16T00:47:13;10.20;99.90
18577;DHT22;9418;52.694;13.294;2024-02-16T00:49:41;10.20;99.90
18577;DHT22;9418;52.694;13.294;2024-02-16T00:52:08;10.20;99.90
18577;DHT22;9418;52.694;13.294;2024-02-16T00:54:35;10.10;99.90
18577;DHT22;9418;52.694;13.294;2024-02-16T00:57:03;10.10;99.90
18577;DHT22;9418;52.694;13.294;2024-02-16T00:59:31;10.10;99.90
18577;DHT22;9418;52.694;13.294;2024-02-16T01:01:58;10.10;99.90
18577;DHT22;9418;52.694;13.294;2024-02-16T01:04:24;10.10;99.90
18577;DHT22;9418;52.694;13.294;2024-02-16T01:06:51;10.00;99.90
18577;DHT22;9418;52.694;13.294;2024-02-16T01:09:18;10.00;99.90
18577;DHT22;9418;52.694;13.294;2024-02-16T01:11:44;9.90;99.90
18577;DHT22;9418;52.694;13.294;2024-02-16T01:14:11;9.90;99.90
18577;DHT22;9418;52.694;13.294;2024-02-16T01:16:39;9.90;99.90
18577;DHT22;9418;52.694;13.294;2024-02-16T01:19:05;9.90;99.90
18577;DHT22;9418;52.694;13.294;2024-02-16T01:21:32;9.80;99.90
18577;DHT22;9418;52.694;13.294;2024-02-16T01:23:59;9.80;99.90
18577;DHT22;9418;52.694;13.294;2024-02-16T01:26:26;9.80;99.90
18577;DHT22;9418;52.694;13.294;2024-02-16T01:28:53;9.80;99.90
18577;DHT22;9418;52.694;13.294;2024-02-16T01:31:19;9.80;99.90
18577;DHT22;9418;52.694;13.294;2024-02-16T01:33:47;9.80;99.90
18577;DHT22;9418;52.694;13.294;2024-02-16T01:36:14;9.80;99.90
18577;DHT22;9418;52.694;13.294;2024-02-16T01:38:40;9.80;99.90
18577;DHT22;9418;52.694;13.294;2024-02-16T01:41:07;9.80;99.90
18577;DHT22;9418;52.694;13.294;2024-02-16T01:43:34;9.80;99.90
18577;DHT22;9418;52.694;13.294;2024-02-16T01:46:01;9.80;99.90
18577;DHT22;9418;52.694;13.294;2024-02-16T01:48:27;9.80;99.90
18577;DHT22;9418;52.694;13.294;2024-02-16T01:50:56;9.80;99.90
18577;DHT22;9418;52.694;13.294;2024-02-16T01:53:23;9.80;99.90
18577;DHT22;9418;52.694;13.294;2024-02-16T01:55:50;9.90;99.90
18577;DHT22;9418;52.694;13.294;2024-02-16T01:58:17;9.90;99.90
18577;DHT22;9418;52.694;13.294;2024-02-16T02:00:43;9.90;99.90
18577;DHT22;9418;52.694;13.294;2024-02-16T02:03:10;9.90;99.90
18577;DHT22;9418;52.694;13.294;2024-02-16T02:05:43;9.90;99.90
18577;DHT22;9418;52.694;13.294;2024-02-16T02:08:13;9.90;99.90
18577;DHT22;9418;52.694;13.294;2024-02-16T02:10:40;9.90;99.90
18577;DHT22;9418;52.694;13.294;2024-02-16T02:13:06;10.00;99.90
18577;DHT22;9418;52.694;13.294;2024-02-16T02:15:33;9.90;99.90
18577;DHT22;9418;52.694;13.294;2024-02-16T02:18:00;10.00;99.90
18577;DHT22;9418;52.694;13.294;2024-02-16T02:20:27;9.90;99.90
18577;DHT22;9418;52.694;13.294;2024-02-16T02:22:54;9.90;99.90
18577;DHT22;9418;52.694;13.294;2024-02-16T02:25:21;9.90;99.90
18577;DHT22;9418;52.694;13.294;2024-02-16T02:27:48;9.80;99.90
18577;DHT22;9418;52.694;13.294;2024-02-16T02:30:14;9.80;99.90
18577;DHT22;9418;52.694;13.294;2024-02-16T02:32:42;9.80;99.90
18577;DHT22;9418;52.694;13.294;2024-02-16T02:35:09;9.80;99.90
18577;DHT22;9418;52.694;13.294;2024-02-16T02:37:36;9.70;99.90
18577;DHT22;9418;52.694;13.294;2024-02-16T02:40:06;9.70;99.90
18577;DHT22;9418;52.694;13.294;2024-02-16T02:42:33;9.70;99.90
18577;DHT22;9418;52.694;13.294;2024-02-16T02:45:00;9.70;99.90
18577;DHT22;9418;52.694;13.294;2024-02-16T02:47:27;9.70;99.90
18577;DHT22;9418;52.694;13.294;2024-02-16T02:49:53;9.70;99.90
18577;DHT22;9418;52.694;13.294;2024-02-16T02:52:21;9.70;99.90
18577;DHT22;9418;52.694;13.294;2024-02-16T02:54:48;9.70;99.90
18577;DHT22;9418;52.694;13.294;2024-02-16T02:57:15;9.70;99.90
18577;DHT22;9418;52.694;13.294;2024-02-16T02:59:43;9.70;99.90
18577;DHT22;9418;52.694;13.294;2024-02-16T03:02:10;9.70;99.90
18577;DHT22;9418;52.694;13.294;2024-02-16T03:04:37;9.60;99.90
18577;DHT22;9418;52.694;13.294;2024-02-16T03:07:04;9.60;99.90
18577;DHT22;9418;52.694;13.294;2024-02-16T03:09:30;9.60;99.90
18577;DHT22;9418;52.694;13.294;2024-02-16T03:11:57;9.50;99.90
18577;DHT22;9418;52.694;13.294;2024-02-16T03:14:25;9.50;99.90
18577;DHT22;9418;52.694;13.294;2024-02-16T03:16:51;9.50;99.90
18577;DHT22;9418;52.694;13.294;2024-02-16T03:19:18;9.40;99.90
18577;DHT22;9418;52.694;13.294;2024-02-16T03:21:47;9.40;99.90
18577;DHT22;9418;52.694;13.294;2024-02-16T03:24:13;9.40;99.90
18577;DHT22;9418;52.694;13.294;2024-02-16T03:26:40;9.30;99.90
18577;DHT22;9418;52.694;13.294;2024-02-16T03:29:06;9.40;99.90
18577;DHT22;9418;52.694;13.294;2024-02-16T03:31:34;9.40;99.90
18577;DHT22;9418;52.694;13.294;2024-02-16T03:34:01;9.40;99.90
18577;DHT22;9418;52.694;13.294;2024-02-16T03:36:28;9.40;99.90
18577;DHT22;9418;52.694;13.294;2024-02-16T03:38:56;9.40;99.90
18577;DHT22;9418;52.694;13.294;2024-02-16T03:41:23;9.40;99.90
18577;DHT22;9418;52.694;13.294;2024-02-16T03:43:49;9.40;99.90
18577;DHT22;9418;52.694;13.294;2024-02-16T03:46:16;9.40;99.90
18577;DHT22;9418;52.694;13.294;2024-02-16T03:48:44;9.40;99.90
18577;DHT22;9418;52.694;13.294;2024-02-16T03:51:11;9.40;99.90
18577;DHT22;9418;52.694;13.294;2024-02-16T03:53:39;9.40;99.90
18577;DHT22;9418;52.694;13.294;2024-02-16T03:56:06;9.40;99.90
18577;DHT22;9418;52.694;13.294;2024-02-16T03:58:33;9.40;99.90
18577;DHT22;9418;52.694;13.294;2024-02-16T04:00:59;9.40;99.90
18577;DHT22;9418;52.694;13.294;2024-02-16T04:03:26;9.40;99.90
18577;DHT22;9418;52.694;13.294;2024-02-16T04:05:54;9.40;99.90
18577;DHT22;9418;52.694;13.294;2024-02-16T04:08:20;9.40;99.90
18577;DHT22;9418;52.694;13.294;2024-02-16T04:10:47;9.40;99.90
18577;DHT22;9418;52.694;13.294;2024-02-16T04:13:14;9.50;99.90
18577;DHT22;9418;52.694;13.294;2024-02-16T04:15:40;9.40;99.90
18577;DHT22;9418;52.694;13.294;2024-02-16T04:18:07;9.50;99.90
18577;DHT22;9418;52.694;13.294;2024-02-16T04:20:34;9.50;99.90
18577;DHT22;9418;52.694;13.294;2024-02-16T04:23:02;9.40;99.90
18577;DHT22;9418;52.694;13.294;2024-02-16T04:25:29;9.40;99.90
18577;DHT22;9418;52.694;13.294;2024-02-16T04:27:56;9.40;99.90
18577;DHT22;9418;52.694;13.294;2024-02-16T04:30:22;9.40;99.90
18577;DHT22;9418;52.694;13.294;2024-02-16T04:32:49;9.40;99.90
18577;DHT22;9418;52.694;13.294;2024-02-16T04:35:15;9.40;99.90
18577;DHT22;9418;52.694;13.294;2024-02-16T04:37:42;9.40;99.90
18577;DHT22;9418;52.694;13.294;2024-02-16T04:40:11;9.30;99.90
18577;DHT22;9418;52.694;13.294;2024-02-16T04:42:38;9.30;99.90
18577;DHT22;9418;52.694;13.294;2024-02-16T04:45:06;9.30;99.90
18577;DHT22;9418;52.694;13.294;2024-02-16T04:47:33;9.30;99.90
18577;DHT22;9418;52.694;13.294;2024-02-16T04:49:59;9.30;99.90
18577;DHT22;9418;52.694;13.294;2024-02-16T04:52:26;9.30;99.90
18577;DHT22;9418;52.694;13.294;2024-02-16T04:54:52;9.20;99.90
18577;DHT22;9418;52.694;13.294;2024-02-16T04:57:20;9.30;99.90
18577;DHT22;9418;52.694;13.294;2024-02-16T04:59:47;9.30;99.90
18577;DHT22;9418;52.694;13.294;2024-02-16T05:02:14;9.30;99.90
18577;DHT22;9418;52.694;13.294;2024-02-16T05:04:40;9.30;99.90
18577;DHT22;9418;52.694;13.294;2024-02-16T05:07:07;9.20;99.90
18577;DHT22;9418;52.694;13.294;2024-02-16T05:09:33;9.30;99.90
18577;DHT22;9418;52.694;13.294;2024-02-16T05:12:00;9.40;99.90
18577;DHT22;9418;52.694;13.294;2024-02-16T05:14:29;9.40;99.90
18577;DHT22;9418;52.694;13.294;2024-02-16T05:16:55;9.40;99.90
18577;DHT22;9418;52.694;13.294;2024-02-16T05:19:22;9.40;99.90
18577;DHT22;9418;52.694;13.294;2024-02-16T05:21:48;9.40;99.90
18577;DHT22;9418;52.694;13.294;2024-02-16T05:24:15;9.40;99.90
18577;DHT22;9418;52.694;13.294;2024-02-16T05:26:43;9.40;99.90
18577;DHT22;9418;52.694;13.294;2024-02-16T05:29:09;9.30;99.90
18577;DHT22;9418;52.694;13.294;2024-02-16T05:31:37;9.30;99.90
18577;DHT22;9418;52.694;13.294;2024-02-16T05:34:04;9.30;99.90
18577;DHT22;9418;52.694;13.294;2024-02-16T05:36:30;9.30;99.90
18577;DHT22;9418;52.694;13.294;2024-02-16T05:39:01;9.30;99.90
18577;DHT22;9418;52.694;13.294;2024-02-16T05:41:45;9.30;99.90
18577;DHT22;9418;52.694;13.294;2024-02-16T05:44:12;9.20;99.90
18577;DHT22;9418;52.694;13.294;2024-02-16T05:46:39;9.30;99.90
18577;DHT22;9418;52.694;13.294;2024-02-16T05:49:07;9.30;99.90
18577;DHT22;9418;52.694;13.294;2024-02-16T05:51:35;9.30;99.90
18577;DHT22;9418;52.694;13.294;2024-02-16T05:54:02;9.30;99.90
18577;DHT22;9418;52.694;13.294;2024-02-16T05:56:28;9.30;99.90
18577;DHT22;9418;52.694;13.294;2024-02-16T05:58:57;9.30;99.90
18577;DHT22;9418;52.694;13.294;2024-02-16T06:01:24;9.30;99.90
18577;DHT22;9418;52.694;13.294;2024-02-16T06:03:53;9.40;83.10
18577;DHT22;9418;52.694;13.294;2024-02-16T06:06:20;9.30;93.90
18577;DHT22;9418;52.694;13.294;2024-02-16T06:08:46;9.40;99.90
18577;DHT22;9418;52.694;13.294;2024-02-16T06:11:13;9.40;96.80
18577;DHT22;9418;52.694;13.294;2024-02-16T06:13:40;9.50;20.30
18577;DHT22;9418;52.694;13.294;2024-02-16T06:16:08;9.50;89.80
18577;DHT22;9418;52.694;13.294;2024-02-16T06:18:34;9.60;77.50
18577;DHT22;9418;52.694;13.294;2024-02-16T06:21:03;9.60;24.20
18577;DHT22;9418;52.694;13.294;2024-02-16T06:23:29;9.60;22.90
18577;DHT22;9418;52.694;13.294;2024-02-16T06:25:56;9.60;28.00
18577;DHT22;9418;52.694;13.294;2024-02-16T06:28:22;9.60;27.60
18577;DHT22;9418;52.694;13.294;2024-02-16T06:30:49;9.60;30.70
18577;DHT22;9418;52.694;13.294;2024-02-16T06:33:16;9.60;32.40
18577;DHT22;9418;52.694;13.294;2024-02-16T06:35:42;9.70;35.10
18577;DHT22;9418;52.694;13.294;2024-02-16T06:38:13;9.70;36.80
18577;DHT22;9418;52.694;13.294;2024-02-16T06:40:39;9.70;34.60
18577;DHT22;9418;52.694;13.294;2024-02-16T06:43:06;9.70;42.20
18577;DHT22;9418;52.694;13.294;2024-02-16T06:45:34;9.80;43.30
18577;DHT22;9418;52.694;13.294;2024-02-16T06:48:01;9.80;45.10
18577;DHT22;9418;52.694;13.294;2024-02-16T06:50:28;9.80;43.70
18577;DHT22;9418;52.694;13.294;2024-02-16T06:52:54;9.70;41.10
18577;DHT22;9418;52.694;13.294;2024-02-16T06:55:22;9.70;44.60
18577;DHT22;9418;52.694;13.294;2024-02-16T06:57:49;9.70;44.60
18577;DHT22;9418;52.694;13.294;2024-02-16T07:00:16;9.70;45.40
18577;DHT22;9418;52.694;13.294;2024-02-16T07:02:45;9.70;42.20
18577;DHT22;9418;52.694;13.294;2024-02-16T07:05:13;9.70;41.70
18577;DHT22;9418;52.694;13.294;2024-02-16T07:07:41;9.70;39.10
18577;DHT22;9418;52.694;13.294;2024-02-16T07:10:08;9.70;42.30
18577;DHT22;9418;52.694;13.294;2024-02-16T07:12:39;9.70;37.60
18577;DHT22;9418;52.694;13.294;2024-02-16T07:15:07;9.70;39.60
18577;DHT22;9418;52.694;13.294;2024-02-16T07:17:34;9.70;43.70
18577;DHT22;9418;52.694;13.294;2024-02-16T07:20:03;9.80;38.70
18577;DHT22;9418;52.694;13.294;2024-02-16T07:22:30;9.80;46.70
18577;DHT22;9418;52.694;13.294;2024-02-16T07:24:57;9.80;47.90
18577;DHT22;9418;52.694;13.294;2024-02-16T07:27:25;10.00;53.60
18577;DHT22;9418;52.694;13.294;2024-02-16T07:29:53;10.10;64.30
18577;DHT22;9418;52.694;13.294;2024-02-16T07:32:20;10.20;68.70
18577;DHT22;9418;52.694;13.294;2024-02-16T07:34:47;10.30;72.40
18577;DHT22;9418;52.694;13.294;2024-02-16T07:37:14;10.40;70.90
18577;DHT22;9418;52.694;13.294;2024-02-16T07:39:41;10.50;94.20
18577;DHT22;9418;52.694;13.294;2024-02-16T07:42:08;10.70;88.80
18577;DHT22;9418;52.694;13.294;2024-02-16T07:44:35;10.90;99.80
18577;DHT22;9418;52.694;13.294;2024-02-16T07:47:03;11.00;99.90
18577;DHT22;9418;52.694;13.294;2024-02-16T07:49:30;11.30;99.90
18577;DHT22;9418;52.694;13.294;2024-02-16T07:51:57;11.50;99.90
18577;DHT22;9418;52.694;13.294;2024-02-16T07:54:24;11.60;99.90
18577;DHT22;9418;52.694;13.294;2024-02-16T07:56:50;11.50;99.90
18577;DHT22;9418;52.694;13.294;2024-02-16T07:59:17;11.50;99.90
18577;DHT22;9418;52.694;13.294;2024-02-16T08:01:44;11.70;99.90
18577;DHT22;9418;52.694;13.294;2024-02-16T08:04:12;11.90;99.90
18577;DHT22;9418;52.694;13.294;2024-02-16T08:06:38;12.10;99.90
18577;DHT22;9418;52.694;13.294;2024-02-16T08:09:05;12.40;99.90
18577;DHT22;9418;52.694;13.294;2024-02-16T08:11:32;12.50;99.90
18577;DHT22;9418;52.694;13.294;2024-02-16T08:13:59;12.20;99.90
18577;DHT22;9418;52.694;13.294;2024-02-16T08:16:26;12.20;99.90
18577;DHT22;9418;52.694;13.294;2024-02-16T08:18:52;12.10;99.90
18577;DHT22;9418;52.694;13.294;2024-02-16T08:21:20;12.20;99.90
18577;DHT22;9418;52.694;13.294;2024-02-16T08:23:47;12.20;99.90
18577;DHT22;9418;52.694;13.294;2024-02-16T08:26:14;12.20;99.90
18577;DHT22;9418;52.694;13.294;2024-02-16T08:28:43;12.40;99.90
18577;DHT22;9418;52.694;13.294;2024-02-16T08:31:10;12.50;99.90
18577;DHT22;9418;52.694;13.294;2024-02-16T08:33:40;12.30;99.90
18577;DHT22;9418;52.694;13.294;2024-02-16T08:36:08;12.10;99.90
18577;DHT22;9418;52.694;13.294;2024-02-16T08:38:37;11.90;99.90
18577;DHT22;9418;52.694;13.294;2024-02-16T08:41:04;11.80;99.90
18577;DHT22;9418;52.694;13.294;2024-02-16T08:43:31;11.70;99.90
18577;DHT22;9418;52.694;13.294;2024-02-16T08:45:58;11.80;99.90
18577;DHT22;9418;52.694;13.294;2024-02-16T08:48:24;11.60;99.90
18577;DHT22;9418;52.694;13.294;2024-02-16T08:50:51;11.70;99.90
18577;DHT22;9418;52.694;13.294;2024-02-16T08:53:18;11.90;99.90
18577;DHT22;9418;52.694;13.294;2024-02-16T08:55:45;12.30;99.90
18577;DHT22;9418;52.694;13.294;2024-02-16T08:58:12;12.60;99.90
18577;DHT22;9418;52.694;13.294;2024-02-16T09:00:39;12.90;99.90
18577;DHT22;9418;52.694;13.294;2024-02-16T09:03:05;13.00;99.90
18577;DHT22;9418;52.694;13.294;2024-02-16T09:05:34;12.90;79.00
18577;DHT22;9418;52.694;13.294;2024-02-16T09:08:00;13.10;23.20
18577;DHT22;9418;52.694;13.294;2024-02-16T09:10:28;13.60;99.90
18577;DHT22;9418;52.694;13.294;2024-02-16T09:12:56;14.40;27.60
18577;DHT22;9418;52.694;13.294;2024-02-16T09:15:22;15.20;70.90
18577;DHT22;9418;52.694;13.294;2024-02-16T09:17:49;15.20;99.90
18577;DHT22;9418;52.694;13.294;2024-02-16T09:20:16;15.10;99.90
18577;DHT22;9418;52.694;13.294;2024-02-16T09:22:47;14.90;83.60
18577;DHT22;9418;52.694;13.294;2024-02-16T09:25:14;14.40;88.70
18577;DHT22;9418;52.694;13.294;2024-02-16T09:27:41;14.20;80.80
18577;DHT22;9418;52.694;13.294;2024-02-16T09:30:12;14.00;78.60
18577;DHT22;9418;52.694;13.294;2024-02-16T09:32:39;13.70;75.40
18577;DHT22;9418;52.694;13.294;2024-02-16T09:35:06;13.70;67.10
18577;DHT22;9418;52.694;13.294;2024-02-16T09:37:34;13.50;68.10
18577;DHT22;9418;52.694;13.294;2024-02-16T09:40:01;13.50;58.70
18577;DHT22;9418;52.694;13.294;2024-02-16T09:42:29;13.40;47.50
18577;DHT22;9418;52.694;13.294;2024-02-16T09:44:56;13.40;56.20
18577;DHT22;9418;52.694;13.294;2024-02-16T09:47:24;13.40;51.20
18577;DHT22;9418;52.694;13.294;2024-02-16T09:49:54;13.40;49.00
18577;DHT22;9418;52.694;13.294;2024-02-16T09:52:21;13.30;53.90
18577;DHT22;9418;52.694;13.294;2024-02-16T09:54:48;13.20;53.80
18577;DHT22;9418;52.694;13.294;2024-02-16T09:57:16;13.20;49.00
18577;DHT22;9418;52.694;13.294;2024-02-16T09:59:43;13.20;49.10
18577;DHT22;9418;52.694;13.294;2024-02-16T10:02:09;13.20;48.00
18577;DHT22;9418;52.694;13.294;2024-02-16T10:04:37;13.50;37.00
18577;DHT22;9418;52.694;13.294;2024-02-16T10:07:04;13.60;68.50
18577;DHT22;9418;52.694;13.294;2024-02-16T10:09:31;13.70;53.20
18577;DHT22;9418;52.694;13.294;2024-02-16T10:11:58;13.80;69.00
18577;DHT22;9418;52.694;13.294;2024-02-16T10:14:25;13.70;67.30
18577;DHT22;9418;52.694;13.294;2024-02-16T10:16:59;13.80;63.30
18577;DHT22;9418;52.694;13.294;2024-02-16T10:19:28;14.90;66.60
18577;DHT22;9418;52.694;13.294;2024-02-16T10:22:06;15.50;99.90
18577;DHT22;9418;52.694;13.294;2024-02-16T10:24:33;16.50;99.90
18577;DHT22;9418;52.694;13.294;2024-02-16T10:26:59;16.80;99.90
18577;DHT22;9418;52.694;13.294;2024-02-16T10:29:27;16.20;99.90
18577;DHT22;9418;52.694;13.294;2024-02-16T10:31:53;17.20;99.90
18577;DHT22;9418;52.694;13.294;2024-02-16T10:34:23;16.80;99.90
18577;DHT22;9418;52.694;13.294;2024-02-16T10:36:51;17.20;99.90
18577;DHT22;9418;52.694;13.294;2024-02-16T10:39:19;17.60;99.90
18577;DHT22;9418;52.694;13.294;2024-02-16T10:41:47;17.50;99.90
18577;DHT22;9418;52.694;13.294;2024-02-16T10:44:14;17.40;99.90
18577;DHT22;9418;52.694;13.294;2024-02-16T10:46:40;16.80;99.90
18577;DHT22;9418;52.694;13.294;2024-02-16T10:49:07;16.40;99.90
18577;DHT22;9418;52.694;13.294;2024-02-16T10:51:37;16.10;99.90
18577;DHT22;9418;52.694;13.294;2024-02-16T10:54:06;15.70;99.90
18577;DHT22;9418;52.694;13.294;2024-02-16T10:56:35;15.90;99.90
18577;DHT22;9418;52.694;13.294;2024-02-16T10:59:02;16.10;99.90
18577;DHT22;9418;52.694;13.294;2024-02-16T11:01:32;16.70;99.90
18577;DHT22;9418;52.694;13.294;2024-02-16T11:04:01;17.30;99.90
18577;DHT22;9418;52.694;13.294;2024-02-16T11:06:28;17.20;99.90
18577;DHT22;9418;52.694;13.294;2024-02-16T11:09:01;17.30;99.90
18577;DHT22;9418;52.694;13.294;2024-02-16T11:11:34;16.90;99.90
18577;DHT22;9418;52.694;13.294;2024-02-16T11:14:01;16.90;99.90
18577;DHT22;9418;52.694;13.294;2024-02-16T11:16:29;16.70;99.90
18577;DHT22;9418;52.694;13.294;2024-02-16T11:18:56;16.40;99.90
18577;DHT22;9418;52.694;13.294;2024-02-16T11:21:23;16.80;99.90
18577;DHT22;9418;52.694;13.294;2024-02-16T11:23:49;16.90;99.90
18577;DHT22;9418;52.694;13.294;2024-02-16T11:26:17;16.70;99.90
18577;DHT22;9418;52.694;13.294;2024-02-16T11:28:45;16.50;99.90
18577;DHT22;9418;52.694;13.294;2024-02-16T11:31:12;17.20;99.90
18577;DHT22;9418;52.694;13.294;2024-02-16T11:33:43;17.00;99.90
18577;DHT22;9418;52.694;13.294;2024-02-16T11:36:09;16.70;99.90
18577;DHT22;9418;52.694;13.294;2024-02-16T11:38:37;16.60;99.90
18577;DHT22;9418;52.694;13.294;2024-02-16T11:41:05;16.10;99.90
18577;DHT22;9418;52.694;13.294;2024-02-16T11:43:32;15.90;99.90
18577;DHT22;9418;52.694;13.294;2024-02-16T11:46:11;15.70;99.90
18577;DHT22;9418;52.694;13.294;2024-02-16T11:48:38;15.60;99.90
18577;DHT22;9418;52.694;13.294;2024-02-16T11:51:05;15.50;99.90
18577;DHT22;9418;52.694;13.294;2024-02-16T11:53:32;15.50;99.90
18577;DHT22;9418;52.694;13.294;2024-02-16T11:55:59;15.40;99.90
18577;DHT22;9418;52.694;13.294;2024-02-16T11:58:26;15.50;99.90
18577;DHT22;9418;52.694;13.294;2024-02-16T12:00:53;15.40;99.90
18577;DHT22;9418;52.694;13.294;2024-02-16T12:03:21;15.40;99.90
18577;DHT22;9418;52.694;13.294;2024-02-16T12:05:51;15.30;99.90
18577;DHT22;9418;52.694;13.294;2024-02-16T12:08:18;15.20;99.90
18577;DHT22;9418;52.694;13.294;2024-02-16T12:10:46;15.10;99.90
18577;DHT22;9418;52.694;13.294;2024-02-16T12:13:13;15.00;99.90
18577;DHT22;9418;52.694;13.294;2024-02-16T12:15:39;15.00;99.90
18577;DHT22;9418;52.694;13.294;2024-02-16T12:18:06;15.00;99.90
18577;DHT22;9418;52.694;13.294;2024-02-16T12:20:34;15.10;99.90
18577;DHT22;9418;52.694;13.294;2024-02-16T12:23:10;15.40;99.90
18577;DHT22;9418;52.694;13.294;2024-02-16T12:25:37;16.00;99.90
18577;DHT22;9418;52.694;13.294;2024-02-16T12:28:04;16.10;99.90
18577;DHT22;9418;52.694;13.294;2024-02-16T12:30:33;16.10;99.90
18577;DHT22;9418;52.694;13.294;2024-02-16T12:32:59;16.10;99.90
18577;DHT22;9418;52.694;13.294;2024-02-16T12:35:26;16.00;99.90
18577;DHT22;9418;52.694;13.294;2024-02-16T12:37:54;16.50;99.90
18577;DHT22;9418;52.694;13.294;2024-02-16T12:40:21;16.50;99.90
18577;DHT22;9418;52.694;13.294;2024-02-16T12:42:48;16.40;99.90
18577;DHT22;9418;52.694;13.294;2024-02-16T12:45:15;16.40;99.90
18577;DHT22;9418;52.694;13.294;2024-02-16T12:47:42;16.20;99.90
18577;DHT22;9418;52.694;13.294;2024-02-16T12:50:09;16.20;99.90
18577;DHT22;9418;52.694;13.294;2024-02-16T12:52:35;16.10;99.90
18577;DHT22;9418;52.694;13.294;2024-02-16T12:55:06;16.10;99.90
18577;DHT22;9418;52.694;13.294;2024-02-16T12:57:34;15.90;99.90
18577;DHT22;9418;52.694;13.294;2024-02-16T13:00:00;15.80;99.90
18577;DHT22;9418;52.694;13.294;2024-02-16T13:02:28;15.70;99.90
18577;DHT22;9418;52.694;13.294;2024-02-16T13:04:55;15.70;99.90
18577;DHT22;9418;52.694;13.294;2024-02-16T13:07:22;15.60;99.90
18577;DHT22;9418;52.694;13.294;2024-02-16T13:09:48;15.60;99.90
18577;DHT22;9418;52.694;13.294;2024-02-16T13:12:17;15.60;99.90
18577;DHT22;9418;52.694;13.294;2024-02-16T13:14:45;15.60;99.90
18577;DHT22;9418;52.694;13.294;2024-02-16T13:17:12;15.50;99.90
18577;DHT22;9418;52.694;13.294;2024-02-16T13:19:39;15.60;99.90
18577;DHT22;9418;52.694;13.294;2024-02-16T13:22:05;15.70;99.90
18577;DHT22;9418;52.694;13.294;2024-02-16T13:24:32;16.30;99.90
18577;DHT22;9418;52.694;13.294;2024-02-16T13:26:59;16.90;99.90
18577;DHT22;9418;52.694;13.294;2024-02-16T13:29:27;17.30;99.90
18577;DHT22;9418;52.694;13.294;2024-02-16T13:31:53;17.20;99.90
18577;DHT22;9418;52.694;13.294;2024-02-16T13:34:20;17.30;99.90
18577;DHT22;9418;52.694;13.294;2024-02-16T13:36:46;17.10;99.90
18577;DHT22;9418;52.694;13.294;2024-02-16T13:39:13;17.10;99.90
18577;DHT22;9418;52.694;13.294;2024-02-16T13:41:41;16.90;99.90
18577;DHT22;9418;52.694;13.294;2024-02-16T13:44:09;16.70;99.90
18577;DHT22;9418;52.694;13.294;2024-02-16T13:46:37;16.40;99.90
18577;DHT22;9418;52.694;13.294;2024-02-16T13:49:04;16.50;99.90
18577;DHT22;9418;52.694;13.294;2024-02-16T13:51:30;16.30;99.90
18577;DHT22;9418;52.694;13.294;2024-02-16T13:53:57;16.30;99.90
18577;DHT22;9418;52.694;13.294;2024-02-16T13:56:23;16.30;99.90
18577;DHT22;9418;52.694;13.294;2024-02-16T13:58:50;16.30;99.90
18577;DHT22;9418;52.694;13.294;2024-02-16T14:01:16;16.30;99.90
18577;DHT22;9418;52.694;13.294;2024-02-16T14:03:44;16.30;99.90
18577;DHT22;9418;52.694;13.294;2024-02-16T14:06:11;16.20;99.90
18577;DHT22;9418;52.694;13.294;2024-02-16T14:08:38;16.30;99.90
18577;DHT22;9418;52.694;13.294;2024-02-16T14:11:04;16.20;99.90
18577;DHT22;9418;52.694;13.294;2024-02-16T14:13:31;16.20;99.90
18577;DHT22;9418;52.694;13.294;2024-02-16T14:15:57;16.20;99.90
18577;DHT22;9418;52.694;13.294;2024-02-16T14:18:24;16.00;99.90
18577;DHT22;9418;52.694;13.294;2024-02-16T14:20:52;16.00;99.90
18577;DHT22;9418;52.694;13.294;2024-02-16T14:23:18;15.90;99.90
18577;DHT22;9418;52.694;13.294;2024-02-16T14:25:45;15.80;99.90
18577;DHT22;9418;52.694;13.294;2024-02-16T14:28:12;15.80;99.90
18577;DHT22;9418;52.694;13.294;2024-02-16T14:30:39;15.70;99.90
18577;DHT22;9418;52.694;13.294;2024-02-16T14:33:07;15.70;99.90
18577;DHT22;9418;52.694;13.294;2024-02-16T14:35:33;15.60;99.90
18577;DHT22;9418;52.694;13.294;2024-02-16T14:38:03;15.50;99.90
18577;DHT22;9418;52.694;13.294;2024-02-16T14:40:30;15.50;99.90
18577;DHT22;9418;52.694;13.294;2024-02-16T14:42:58;15.50;99.90
18577;DHT22;9418;52.694;13.294;2024-02-16T14:45:24;15.40;99.90
18577;DHT22;9418;52.694;13.294;2024-02-16T14:47:51;15.40;99.90
18577;DHT22;9418;52.694;13.294;2024-02-16T14:50:18;15.40;99.90
18577;DHT22;9418;52.694;13.294;2024-02-16T14:52:45;15.40;99.90
18577;DHT22;9418;52.694;13.294;2024-02-16T14:55:13;15.30;99.90
18577;DHT22;9418;52.694;13.294;2024-02-16T14:57:40;15.30;99.90
18577;DHT22;9418;52.694;13.294;2024-02-16T15:00:07;15.30;99.90
18577;DHT22;9418;52.694;13.294;2024-02-16T15:02:35;15.20;99.90
18577;DHT22;9418;52.694;13.294;2024-02-16T15:05:03;15.20;99.90
18577;DHT22;9418;52.694;13.294;2024-02-16T15:07:29;15.10;99.90
18577;DHT22;9418;52.694;13.294;2024-02-16T15:09:56;15.10;99.90
18577;DHT22;9418;52.694;13.294;2024-02-16T15:12:24;15.10;99.90
18577;DHT22;9418;52.694;13.294;2024-02-16T15:14:51;15.10;99.90
18577;DHT22;9418;52.694;13.294;2024-02-16T15:17:17;15.10;99.90
18577;DHT22;9418;52.694;13.294;2024-02-16T15:19:45;15.10;99.90
18577;DHT22;9418;52.694;13.294;2024-02-16T15:22:12;15.10;99.90
18577;DHT22;9418;52.694;13.294;2024-02-16T15:24:38;15.00;99.90
18577;DHT22;9418;52.694;13.294;2024-02-16T15:27:05;15.00;99.90
18577;DHT22;9418;52.694;13.294;2024-02-16T15:29:33;15.00;99.90
18577;DHT22;9418;52.694;13.294;2024-02-16T15:31:59;15.00;99.90
18577;DHT22;9418;52.694;13.294;2024-02-16T15:34:26;14.90;99.90
18577;DHT22;9418;52.694;13.294;2024-02-16T15:36:53;14.90;99.90